Maplesville, Alabama
Current Conditions -  °F | °C
As of 12:53 PM on Saturday 25 Oct 2014 (Local Time) from KEET Reporting Station
Clear Clear  
Wind Chill: 73°   Ceiling: Unl
Heat Index: 73°   Visibility: 10mi
Dew Point: 53°   Wind: 7mph
Humidity: 49%   Direction: 330°NNW
Pressure: 30.09"   Gusts: NA
Location:  32.79°N, 86.87°W
Report Text: KEET 251753Z AUTO 33006KT 10SM CLR 23/12 A3009 RMK AO2 SLP186 T02280117 10228 20083 58013
Loading
Personal Weather Stations






























Interactive Weather Map
Tropical Storm Tracking
New forecast layout! Learn more

10-Day Weather Forecast

Advertisements
Track Severe Weather on mobile